createdAt,value
2023-03-16T00:00:35.238Z,98374.25
2023-03-16T00:02:07.457Z,98375.91
2023-03-16T00:03:39.705Z,98377.00
2023-03-16T00:05:13.081Z,98373.59
2023-03-16T00:06:44.731Z,98365.41
2023-03-16T00:08:17.571Z,98370.38
2023-03-16T00:09:49.188Z,98369.72
2023-03-16T00:11:21.393Z,98362.28
2023-03-16T00:12:54.204Z,98364.13
2023-03-16T00:14:26.713Z,98368.34
2023-03-16T00:16:00.872Z,98364.13
2023-03-16T00:17:32.681Z,98368.06
2023-03-16T00:19:05.751Z,98359.88
2023-03-16T00:20:37.395Z,98363.66
2023-03-16T00:22:09.094Z,98370.00
2023-03-16T00:23:42.640Z,98365.69
2023-03-16T00:25:15.192Z,98366.53
2023-03-16T00:26:47.918Z,98358.78
2023-03-16T00:28:20.039Z,98364.28
2023-03-16T00:29:56.995Z,98370.72
2023-03-16T00:31:28.810Z,98372.03
2023-03-16T00:33:02.210Z,98371.47
2023-03-16T00:34:34.801Z,98375.06
2023-03-16T00:36:09.427Z,98380.03
2023-03-16T00:37:43.087Z,98379.19
2023-03-16T00:39:14.899Z,98379.41
2023-03-16T00:40:47.150Z,98380.31
2023-03-16T00:42:20.027Z,98385.47
2023-03-16T00:43:53.752Z,98386.75
2023-03-16T00:45:25.525Z,98378.75
2023-03-16T00:46:57.202Z,98385.19
2023-03-16T00:48:28.843Z,98396.13
2023-03-16T00:50:01.778Z,98387.44
2023-03-16T00:51:46.328Z,98397.66
2023-03-16T00:53:18.013Z,98386.25
2023-03-16T00:54:50.208Z,98388.19
2023-03-16T00:56:21.869Z,98385.13
2023-03-16T00:57:53.563Z,98379.41
2023-03-16T00:59:26.233Z,98379.59
2023-03-16T01:00:59.576Z,98388.34
2023-03-16T01:02:31.409Z,98379.22
2023-03-16T01:04:03.399Z,98377.31
2023-03-16T01:05:40.073Z,98383.09
2023-03-16T01:07:14.454Z,98377.03
2023-03-16T01:08:46.473Z,98386.59
2023-03-16T01:10:18.184Z,98383.03
2023-03-16T01:11:53.725Z,98379.91
2023-03-16T01:13:25.335Z,98382.38
2023-03-16T01:14:57.181Z,98381.47
2023-03-16T01:16:33.824Z,98384.31
2023-03-16T01:18:06.424Z,98375.78
2023-03-16T01:19:38.375Z,98377.53
2023-03-16T01:21:13.850Z,98374.31
2023-03-16T01:22:45.890Z,98369.69
2023-03-16T01:24:17.584Z,98368.31
2023-03-16T01:25:53.314Z,98367.84
2023-03-16T01:27:26.346Z,98364.53
2023-03-16T01:28:58.360Z,98372.88
2023-03-16T01:30:30.298Z,98373.25
2023-03-16T01:32:03.984Z,98372.53
2023-03-16T01:33:36.550Z,98372.53
2023-03-16T01:35:10.076Z,98376.56
2023-03-16T01:36:41.900Z,98375.38
2023-03-16T01:38:13.638Z,98383.19
2023-03-16T01:39:45.352Z,98376.50
2023-03-16T01:41:18.073Z,98376.41
2023-03-16T01:43:01.574Z,98372.41
2023-03-16T01:45:28.627Z,98370.28
2023-03-16T01:47:00.232Z,98365.69
2023-03-16T01:48:47.394Z,98369.00
2023-03-16T01:50:19.791Z,98369.59
2023-03-16T01:52:06.933Z,98371.94
2023-03-16T01:53:41.522Z,98372.22
2023-03-16T01:55:13.690Z,98364.94
2023-03-16T01:56:55.249Z,98368.69
2023-03-16T01:58:28.981Z,98372.34
2023-03-16T02:00:19.018Z,98368.78
2023-03-16T02:02:03.937Z,98361.31
2023-03-16T02:03:37.627Z,98360.72
2023-03-16T02:05:25.670Z,98361.91
2023-03-16T02:06:57.837Z,98362.00
2023-03-16T02:08:31.609Z,98361.00
2023-03-16T02:10:06.361Z,98363.84
2023-03-16T02:11:38.172Z,98360.69
2023-03-16T02:13:15.107Z,98363.03
2023-03-16T02:14:48.776Z,98357.19
2023-03-16T02:16:22.521Z,98354.63
2023-03-16T02:17:57.674Z,98356.78
2023-03-16T02:19:38.069Z,98347.22
2023-03-16T02:21:16.830Z,98348.78
2023-03-16T02:22:54.106Z,98340.91
2023-03-16T02:24:26.081Z,98337.13
2023-03-16T02:26:06.752Z,98344.34
2023-03-16T02:28:36.087Z,98337.81
2023-03-16T02:30:15.569Z,98331.09
2023-03-16T02:32:00.087Z,98333.56
2023-03-16T02:33:33.053Z,98323.38
2023-03-16T02:35:06.136Z,98327.50
2023-03-16T02:36:41.667Z,98335.59
2023-03-16T02:38:13.393Z,98331.56
2023-03-16T02:39:51.235Z,98325.72
2023-03-16T02:41:24.894Z,98325.44
2023-03-16T02:43:17.164Z,98330.13
2023-03-16T02:44:58.152Z,98335.06
2023-03-16T02:46:35.887Z,98337.75
2023-03-16T02:48:14.650Z,98338.41
2023-03-16T02:49:46.523Z,98339.06
2023-03-16T02:51:18.136Z,98338.69
2023-03-16T02:52:49.756Z,98345.31
2023-03-16T02:54:21.531Z,98341.28
2023-03-16T02:55:53.267Z,98335.69
2023-03-16T02:57:25.152Z,98337.41
2023-03-16T02:58:57.943Z,98338.63
2023-03-16T03:00:30.628Z,98337.88
2023-03-16T03:02:02.188Z,98335.91
2023-03-16T03:03:34.594Z,98344.94
2023-03-16T03:05:06.767Z,98338.13
2023-03-16T03:06:38.296Z,98333.72
2023-03-16T03:08:10.512Z,98336.00
2023-03-16T03:09:42.973Z,98329.44
2023-03-16T03:11:14.682Z,98336.16
2023-03-16T03:12:49.397Z,98336.31
2023-03-16T03:14:21.087Z,98331.63
2023-03-16T03:15:54.350Z,98320.06
2023-03-16T03:17:30.340Z,98323.22
2023-03-16T03:19:02.760Z,98313.09
2023-03-16T03:20:38.990Z,98307.19
2023-03-16T03:22:10.817Z,98314.47
2023-03-16T03:23:46.447Z,98317.16
2023-03-16T03:25:19.326Z,98321.13
2023-03-16T03:26:52.096Z,98309.25
2023-03-16T03:28:25.561Z,98306.59
2023-03-16T03:29:57.262Z,98304.66
2023-03-16T03:31:28.953Z,98303.47
2023-03-16T03:33:02.739Z,98304.94
2023-03-16T03:34:35.426Z,98303.47
2023-03-16T03:36:07.678Z,98304.84
2023-03-16T03:37:42.706Z,98298.22
2023-03-16T03:39:14.305Z,98303.03
2023-03-16T03:40:45.931Z,98308.72
2023-03-16T03:42:17.857Z,98311.47
2023-03-16T03:43:49.482Z,98312.28
2023-03-16T03:45:22.958Z,98303.72
2023-03-16T03:46:55.091Z,98307.72
2023-03-16T03:48:30.602Z,98300.25
2023-03-16T03:50:02.513Z,98295.09
2023-03-16T03:51:36.155Z,98301.38
2023-03-16T03:53:14.631Z,98298.34
2023-03-16T03:55:09.881Z,98299.63
2023-03-16T03:56:41.439Z,98299.41
2023-03-16T03:58:17.214Z,98307.59
2023-03-16T03:59:48.957Z,98302.56
2023-03-16T04:01:32.694Z,98303.28
2023-03-16T04:03:06.357Z,98300.53
2023-03-16T04:04:45.708Z,98300.88
2023-03-16T04:06:18.461Z,98292.41
2023-03-16T04:07:55.052Z,98295.16
2023-03-16T04:09:27.402Z,98310.88
2023-03-16T04:10:59.010Z,98307.56
2023-03-16T04:12:30.822Z,98311.06
2023-03-16T04:14:02.777Z,98305.44
2023-03-16T04:15:35.218Z,98299.28
2023-03-16T04:17:13.278Z,98295.41
2023-03-16T04:18:46.162Z,98300.09
2023-03-16T04:20:19.790Z,98294.88
2023-03-16T04:21:52.491Z,98301.00
2023-03-16T04:23:26.015Z,98289.72
2023-03-16T04:24:58.920Z,98289.72
2023-03-16T04:26:34.267Z,98282.81
2023-03-16T04:28:07.872Z,98277.56
2023-03-16T04:29:42.479Z,98286.31
2023-03-16T04:31:14.515Z,98280.72
2023-03-16T04:32:49.314Z,98291.50
2023-03-16T04:34:25.062Z,98291.41
2023-03-16T04:36:00.594Z,98286.50
2023-03-16T04:37:32.573Z,98284.84
2023-03-16T04:39:05.141Z,98279.22
2023-03-16T04:40:36.789Z,98284.66
2023-03-16T04:42:14.954Z,98283.53
2023-03-16T04:43:46.542Z,98289.13
2023-03-16T04:45:26.714Z,98283.91
2023-03-16T04:47:00.667Z,98290.41
2023-03-16T04:48:40.102Z,98286.47
2023-03-16T04:50:12.925Z,98279.66
2023-03-16T04:51:46.660Z,98282.25
2023-03-16T04:53:22.246Z,98278.59
2023-03-16T04:55:00.888Z,98281.88
2023-03-16T04:56:32.516Z,98283.47
2023-03-16T04:58:07.952Z,98277.94
2023-03-16T04:59:43.281Z,98289.25
2023-03-16T05:01:32.963Z,98284.66
2023-03-16T05:03:10.215Z,98280.56
2023-03-16T05:04:42.424Z,98282.88
2023-03-16T05:06:16.147Z,98278.72
2023-03-16T05:07:48.669Z,98276.47
2023-03-16T05:09:20.726Z,98275.50
2023-03-16T05:10:56.946Z,98276.50
2023-03-16T05:12:28.497Z,98283.22
2023-03-16T05:14:05.271Z,98286.94
2023-03-16T05:15:40.649Z,98286.63
2023-03-16T05:17:23.766Z,98282.41
2023-03-16T05:18:59.010Z,98277.97
2023-03-16T05:20:33.169Z,98279.56
2023-03-16T05:22:06.681Z,98278.81
2023-03-16T05:23:38.907Z,98285.53
2023-03-16T05:25:14.895Z,98287.53
2023-03-16T05:26:48.100Z,98282.47
2023-03-16T05:28:21.770Z,98287.19
2023-03-16T05:30:01.146Z,98283.94
2023-03-16T05:31:34.848Z,98286.72
2023-03-16T05:33:09.660Z,98286.50
2023-03-16T05:34:43.303Z,98288.19
2023-03-16T05:36:16.120Z,98287.53
2023-03-16T05:37:49.964Z,98287.44
2023-03-16T05:39:24.236Z,98288.94
2023-03-16T05:41:02.172Z,98285.59
2023-03-16T05:42:49.746Z,98287.19
2023-03-16T05:44:21.842Z,98285.13
2023-03-16T05:46:28.589Z,98279.06
2023-03-16T05:48:00.918Z,98278.25
2023-03-16T05:49:33.113Z,98280.81
2023-03-16T05:51:07.870Z,98278.72
2023-03-16T05:52:40.615Z,98275.41
2023-03-16T05:54:20.043Z,98280.38
2023-03-16T05:55:53.193Z,98279.28
2023-03-16T05:57:24.788Z,98273.78
2023-03-16T05:58:57.354Z,98272.00
2023-03-16T06:00:30.543Z,98273.84
2023-03-16T06:02:23.048Z,98273.25
2023-03-16T06:03:54.760Z,98273.19
2023-03-16T06:05:32.038Z,98267.75
2023-03-16T06:07:03.746Z,98270.75
2023-03-16T06:08:36.385Z,98271.41
2023-03-16T06:10:14.181Z,98269.34
2023-03-16T06:11:45.946Z,98270.44
2023-03-16T06:13:20.142Z,98272.69
2023-03-16T06:14:51.885Z,98271.41
2023-03-16T06:16:24.290Z,98274.72
2023-03-16T06:17:56.259Z,98270.31
2023-03-16T06:19:28.170Z,98276.09
2023-03-16T06:21:04.358Z,98273.53
2023-03-16T06:22:38.764Z,98277.38
2023-03-16T06:24:10.650Z,98269.13
2023-03-16T06:25:43.033Z,98273.03
2023-03-16T06:27:15.250Z,98275.50
2023-03-16T06:29:01.971Z,98281.97
2023-03-16T06:30:34.136Z,98276.25
2023-03-16T06:32:05.881Z,98273.88
2023-03-16T06:33:37.815Z,98275.19
2023-03-16T06:35:11.360Z,98269.84
2023-03-16T06:36:46.975Z,98269.41
2023-03-16T06:38:19.951Z,98274.84
2023-03-16T06:40:13.439Z,98276.69
2023-03-16T06:41:45.380Z,98281.81
2023-03-16T06:43:19.737Z,98270.69
2023-03-16T06:44:52.820Z,98274.84
2023-03-16T06:46:24.722Z,98268.03
2023-03-16T06:47:57.180Z,98271.00
2023-03-16T06:49:28.957Z,98271.53
2023-03-16T06:51:01.330Z,98275.22
2023-03-16T06:52:34.519Z,98275.97
2023-03-16T06:54:06.267Z,98278.81
2023-03-16T06:55:43.270Z,98283.50
2023-03-16T06:57:14.898Z,98288.19
2023-03-16T06:58:47.747Z,98286.75
2023-03-16T07:00:20.477Z,98286.28
2023-03-16T07:01:52.250Z,98283.78
2023-03-16T07:03:23.917Z,98287.84
2023-03-16T07:05:01.153Z,98286.75
2023-03-16T07:06:33.010Z,98287.38
2023-03-16T07:08:05.000Z,98287.19
2023-03-16T07:09:39.604Z,98288.94
2023-03-16T07:11:12.727Z,98296.31
2023-03-16T07:12:44.776Z,98296.22
2023-03-16T07:14:17.674Z,98298.88
2023-03-16T07:15:53.069Z,98298.97
2023-03-16T07:17:26.191Z,98291.53
2023-03-16T07:18:58.168Z,98296.75
2023-03-16T07:20:32.327Z,98294.84
2023-03-16T07:22:06.469Z,98295.09
2023-03-16T07:23:42.124Z,98295.47
2023-03-16T07:25:15.014Z,98296.50
2023-03-16T07:26:53.061Z,98300.00
2023-03-16T07:28:33.073Z,98293.78
2023-03-16T07:30:06.987Z,98300.63
2023-03-16T07:31:41.463Z,98295.19
2023-03-16T07:33:19.491Z,98298.56
2023-03-16T07:34:51.210Z,98291.50
2023-03-16T07:36:23.214Z,98296.47
2023-03-16T07:37:59.845Z,98295.41
2023-03-16T07:39:31.947Z,98301.09
2023-03-16T07:41:10.787Z,98306.06
2023-03-16T07:42:44.158Z,98307.56
2023-03-16T07:44:20.342Z,98304.84
2023-03-16T07:45:53.688Z,98304.03
2023-03-16T07:47:26.638Z,98302.09
2023-03-16T07:49:02.549Z,98298.59
2023-03-16T07:50:34.283Z,98297.34
2023-03-16T07:52:06.238Z,98296.84
2023-03-16T07:53:43.322Z,98292.22
2023-03-16T07:55:22.973Z,98298.53
2023-03-16T07:56:56.192Z,98296.28
2023-03-16T07:58:34.749Z,98303.13
2023-03-16T08:00:07.996Z,98293.63
2023-03-16T08:01:46.346Z,98287.78
2023-03-16T08:03:18.062Z,98293.28
2023-03-16T08:04:51.567Z,98288.22
2023-03-16T08:06:25.486Z,98287.19
2023-03-16T08:07:57.348Z,98292.72
2023-03-16T08:09:31.402Z,98289.97
2023-03-16T08:11:03.081Z,98287.59
2023-03-16T08:12:52.239Z,98290.81
2023-03-16T08:14:24.379Z,98292.09
2023-03-16T08:16:16.370Z,98295.97
2023-03-16T08:17:50.022Z,98292.44
2023-03-16T08:19:28.935Z,98302.75
2023-03-16T08:21:03.601Z,98302.19
2023-03-16T08:22:36.864Z,98306.06
2023-03-16T08:24:08.917Z,98304.13
2023-03-16T08:25:40.562Z,98300.88
2023-03-16T08:27:20.482Z,98291.28
2023-03-16T08:28:55.954Z,98295.72
2023-03-16T08:30:27.909Z,98292.28
2023-03-16T08:32:16.416Z,98294.84
2023-03-16T08:33:49.780Z,98275.72
2023-03-16T08:35:30.130Z,98283.13
2023-03-16T08:37:02.082Z,98282.72
2023-03-16T08:38:34.280Z,98287.09
2023-03-16T08:40:14.221Z,98279.41
2023-03-16T08:41:47.117Z,98275.34
2023-03-16T08:43:31.875Z,98271.72
2023-03-16T08:45:11.737Z,98269.28
2023-03-16T08:46:45.367Z,98258.59
2023-03-16T08:48:18.309Z,98260.63
2023-03-16T08:49:53.370Z,98256.13
2023-03-16T08:51:25.112Z,98248.38
2023-03-16T08:52:56.776Z,98247.81
2023-03-16T08:54:28.418Z,98244.59
2023-03-16T08:56:12.355Z,98235.72
2023-03-16T08:57:46.217Z,98245.94
2023-03-16T08:59:28.965Z,98249.09
2023-03-16T09:01:03.117Z,98226.84
2023-03-16T09:02:38.634Z,98235.06
2023-03-16T09:04:11.956Z,98229.63
2023-03-16T09:05:43.728Z,98232.75
2023-03-16T09:07:15.751Z,98229.81
2023-03-16T09:08:48.095Z,98230.91
2023-03-16T09:10:23.244Z,98225.56
2023-03-16T09:11:55.350Z,98234.13
2023-03-16T09:13:28.877Z,98215.69
2023-03-16T09:15:00.921Z,98216.25
2023-03-16T09:16:32.875Z,98218.19
2023-03-16T09:18:05.972Z,98199.38
2023-03-16T09:19:55.713Z,98211.63
2023-03-16T09:21:29.935Z,98211.63
2023-03-16T09:23:02.018Z,98207.22
2023-03-16T09:24:33.756Z,98205.53
2023-03-16T09:26:07.673Z,98206.63
2023-03-16T09:27:39.423Z,98206.88
2023-03-16T09:29:11.143Z,98202.69
2023-03-16T09:30:43.251Z,98194.22
2023-03-16T09:32:15.577Z,98199.09
2023-03-16T09:33:48.096Z,98193.78
2023-03-16T09:35:20.399Z,98202.91
2023-03-16T09:36:53.774Z,98199.66
2023-03-16T09:38:28.943Z,98197.31
2023-03-16T09:40:10.176Z,98187.44
2023-03-16T09:41:54.043Z,98193.63
2023-03-16T09:43:43.899Z,98194.75
2023-03-16T09:45:57.793Z,98191.84
2023-03-16T09:47:32.887Z,98190.81
2023-03-16T09:49:05.065Z,98185.78
2023-03-16T09:50:48.416Z,98184.63
2023-03-16T09:52:25.322Z,98171.84
2023-03-16T09:54:02.237Z,98160.91
2023-03-16T09:55:37.646Z,98157.75
2023-03-16T09:57:24.444Z,98158.31
2023-03-16T09:58:56.810Z,98151.34
2023-03-16T10:00:37.651Z,98146.47
2023-03-16T10:02:46.620Z,98153.53
2023-03-16T10:04:41.714Z,98160.59
2023-03-16T10:06:16.513Z,98162.88
2023-03-16T10:07:53.776Z,98166.06
2023-03-16T10:10:06.127Z,98159.28
2023-03-16T10:11:47.231Z,98154.44
2023-03-16T10:13:27.782Z,98161.69
2023-03-16T10:15:05.398Z,98157.69
2023-03-16T10:16:55.073Z,98154.13
2023-03-16T10:18:33.191Z,98153.38
2023-03-16T10:20:15.333Z,98151.03
2023-03-16T10:21:49.842Z,98141.88
2023-03-16T10:23:24.469Z,98146.97
2023-03-16T10:25:14.396Z,98141.09
2023-03-16T10:26:55.042Z,98140.47
2023-03-16T10:28:28.882Z,98139.69
2023-03-16T10:30:03.519Z,98133.75
2023-03-16T10:31:35.481Z,98138.28
2023-03-16T10:33:13.296Z,98128.69
2023-03-16T10:34:52.577Z,98132.28
2023-03-16T10:36:30.962Z,98130.41
2023-03-16T10:38:02.692Z,98129.34
2023-03-16T10:39:42.902Z,98136.09
2023-03-16T10:41:25.820Z,98144.69
2023-03-16T10:42:57.489Z,98140.16
2023-03-16T10:44:30.121Z,98133.63
2023-03-16T10:46:02.579Z,98130.19
2023-03-16T10:47:34.397Z,98123.88
2023-03-16T10:49:19.425Z,98122.06
2023-03-16T10:50:55.961Z,98107.16
2023-03-16T10:52:39.947Z,98095.59
2023-03-16T10:54:27.233Z,98098.13
2023-03-16T10:56:02.145Z,98103.41
2023-03-16T10:57:36.054Z,98106.22
2023-03-16T10:59:34.055Z,98094.75
2023-03-16T11:01:13.785Z,98100.38
2023-03-16T11:02:45.765Z,98109.81
2023-03-16T11:04:19.366Z,98108.88
2023-03-16T11:06:05.758Z,98106.84
2023-03-16T11:07:37.466Z,98102.59
2023-03-16T11:09:22.873Z,98104.41
2023-03-16T11:11:01.125Z,98108.94
2023-03-16T11:12:33.406Z,98080.75
2023-03-16T11:14:12.851Z,98084.56
2023-03-16T11:15:50.722Z,98075.88
2023-03-16T11:17:53.477Z,98079.28
2023-03-16T11:19:29.885Z,98075.34
2023-03-16T11:21:46.615Z,98084.00
2023-03-16T11:23:25.451Z,98078.06
2023-03-16T11:25:02.966Z,98077.19
2023-03-16T11:26:39.606Z,98073.16
2023-03-16T11:28:32.170Z,98067.66
2023-03-16T11:30:15.502Z,98071.50
2023-03-16T11:31:58.157Z,98067.09
2023-03-16T11:33:31.320Z,98063.13
2023-03-16T11:35:23.988Z,98059.59
2023-03-16T11:37:05.633Z,98059.06
2023-03-16T11:38:37.688Z,98055.38
2023-03-16T11:40:33.195Z,98056.81
2023-03-16T11:42:07.798Z,98052.38
2023-03-16T11:43:53.230Z,98053.34
2023-03-16T11:45:28.245Z,98050.78
2023-03-16T11:47:09.155Z,98057.16
2023-03-16T11:48:49.545Z,98046.72
2023-03-16T11:50:41.171Z,98049.78
2023-03-16T11:52:30.938Z,98031.91
2023-03-16T11:54:36.801Z,98032.03
2023-03-16T11:56:21.796Z,98042.91
2023-03-16T11:58:18.028Z,98033.25
2023-03-16T12:00:13.659Z,98033.00
2023-03-16T12:02:41.041Z,98031.44
2023-03-16T12:04:18.622Z,98024.00
2023-03-16T12:05:59.804Z,98021.84
2023-03-16T12:07:45.122Z,98025.44
2023-03-16T12:09:24.611Z,98022.06
2023-03-16T12:11:17.356Z,98020.91
2023-03-16T12:13:02.018Z,98018.78
2023-03-16T12:14:41.316Z,98021.19
2023-03-16T12:16:48.307Z,98011.09
2023-03-16T12:18:35.967Z,98007.78
2023-03-16T12:20:26.501Z,98006.84
2023-03-16T12:22:06.333Z,98000.78
2023-03-16T12:23:52.437Z,98007.06
2023-03-16T12:25:29.759Z,97997.41
2023-03-16T12:27:02.617Z,97991.34
2023-03-16T12:28:35.852Z,97992.78
2023-03-16T12:30:27.778Z,97994.59
2023-03-16T12:32:08.474Z,97976.53
2023-03-16T12:33:54.161Z,97976.63
2023-03-16T12:35:37.733Z,97978.41
2023-03-16T12:37:41.411Z,97988.31
2023-03-16T12:39:23.620Z,97988.13
2023-03-16T12:41:11.177Z,97996.41
2023-03-16T12:43:03.377Z,97987.91
2023-03-16T12:44:54.509Z,97987.94
2023-03-16T12:46:40.701Z,97987.09
2023-03-16T12:48:32.548Z,97980.47
2023-03-16T12:50:17.422Z,97972.13
2023-03-16T12:51:59.520Z,97978.63
2023-03-16T12:54:17.829Z,97974.66
2023-03-16T12:55:49.671Z,97968.53
2023-03-16T12:57:27.135Z,97972.38
2023-03-16T12:59:02.256Z,97979.53
2023-03-16T13:00:37.748Z,97970.03
2023-03-16T13:02:18.112Z,97971.63
2023-03-16T13:03:58.360Z,97973.50
2023-03-16T13:05:34.774Z,97968.41
2023-03-16T13:07:10.453Z,97961.88
2023-03-16T13:08:48.115Z,97955.81
2023-03-16T13:10:23.048Z,97955.88
2023-03-16T13:11:55.524Z,97957.88
2023-03-16T13:13:28.524Z,97957.28
2023-03-16T13:15:00.446Z,97958.81
2023-03-16T13:16:36.499Z,97965.59
2023-03-16T13:18:17.487Z,97977.97
2023-03-16T13:20:31.158Z,97957.31
2023-03-16T13:22:31.476Z,97962.38
2023-03-16T13:24:15.747Z,97953.94
2023-03-16T13:26:14.588Z,97957.88
2023-03-16T13:27:49.252Z,97946.16
2023-03-16T13:29:27.910Z,97950.19
2023-03-16T13:31:00.691Z,97949.31
2023-03-16T13:32:35.143Z,97955.72
2023-03-16T13:34:12.066Z,97953.97
2023-03-16T13:35:45.831Z,97942.50
2023-03-16T13:37:20.732Z,97943.69
2023-03-16T13:39:18.883Z,97942.34
2023-03-16T13:40:53.029Z,97943.56
2023-03-16T13:42:27.641Z,97948.53
2023-03-16T13:43:59.365Z,97944.16
2023-03-16T13:45:38.711Z,97933.44
2023-03-16T13:47:17.158Z,97947.66
2023-03-16T13:48:50.400Z,97939.03
2023-03-16T13:50:22.362Z,97943.50
2023-03-16T13:51:54.626Z,97943.91
2023-03-16T13:53:32.847Z,97939.94
2023-03-16T13:55:18.516Z,97947.13
2023-03-16T13:57:03.648Z,97938.72
2023-03-16T13:58:37.942Z,97930.91
2023-03-16T14:00:20.674Z,97931.91
2023-03-16T14:02:04.707Z,97925.91
2023-03-16T14:03:39.619Z,97926.16
2023-03-16T14:05:13.218Z,97917.16
2023-03-16T14:06:58.255Z,97918.66
2023-03-16T14:08:31.487Z,97915.16
2023-03-16T14:10:05.433Z,97907.16
2023-03-16T14:11:37.372Z,97901.81
2023-03-16T14:13:25.486Z,97911.91
2023-03-16T14:14:57.437Z,97907.97
2023-03-16T14:16:32.117Z,97909.34
2023-03-16T14:18:22.633Z,97896.81
2023-03-16T14:20:01.051Z,97901.56
2023-03-16T14:21:34.654Z,97895.28
2023-03-16T14:23:18.046Z,97891.22
2023-03-16T14:24:56.996Z,97893.09
2023-03-16T14:26:40.253Z,97886.81
2023-03-16T14:28:17.529Z,97885.81
2023-03-16T14:30:01.548Z,97874.38
2023-03-16T14:31:38.684Z,97891.50
2023-03-16T14:33:28.738Z,97882.41
2023-03-16T14:35:14.753Z,97881.88
2023-03-16T14:36:46.326Z,97867.91
2023-03-16T14:38:30.002Z,97867.63
2023-03-16T14:40:06.088Z,97860.38
2023-03-16T14:41:39.070Z,97859.66
2023-03-16T14:43:11.532Z,97861.44
2023-03-16T14:44:44.428Z,97866.47
2023-03-16T14:46:25.438Z,97862.94
2023-03-16T14:48:07.443Z,97868.47
2023-03-16T14:49:41.535Z,97868.91
2023-03-16T14:51:15.349Z,97861.50
2023-03-16T14:52:48.350Z,97868.56
2023-03-16T14:54:22.522Z,97871.75
2023-03-16T14:55:58.167Z,97861.91
2023-03-16T14:57:30.772Z,97866.47
2023-03-16T14:59:02.552Z,97862.69
2023-03-16T15:00:42.715Z,97860.19
2023-03-16T15:02:29.740Z,97869.19
2023-03-16T15:04:02.273Z,97866.56
2023-03-16T15:05:37.730Z,97874.44
2023-03-16T15:07:29.637Z,97870.13
2023-03-16T15:09:01.974Z,97870.19
2023-03-16T15:10:36.199Z,97864.97
2023-03-16T15:12:15.045Z,97866.72
2023-03-16T15:13:47.875Z,97870.47
2023-03-16T15:15:23.656Z,97867.66
2023-03-16T15:16:55.161Z,97862.41
2023-03-16T15:18:27.112Z,97860.75
2023-03-16T15:19:59.235Z,97863.09
2023-03-16T15:21:31.541Z,97853.38
2023-03-16T15:23:04.980Z,97858.22
2023-03-16T15:24:37.275Z,97855.28
2023-03-16T15:26:14.361Z,97853.94
2023-03-16T15:27:47.786Z,97852.66
2023-03-16T15:29:22.379Z,97863.41
2023-03-16T15:30:55.862Z,97850.72
2023-03-16T15:32:27.611Z,97855.78
2023-03-16T15:33:59.348Z,97856.97
2023-03-16T15:35:32.032Z,97852.91
2023-03-16T15:37:04.467Z,97851.22
2023-03-16T15:38:39.972Z,97848.47
2023-03-16T15:40:26.073Z,97851.09
2023-03-16T15:41:57.714Z,97850.09
2023-03-16T15:43:31.942Z,97853.03
2023-03-16T15:45:07.502Z,97852.44
2023-03-16T15:46:39.164Z,97850.28
2023-03-16T15:48:11.866Z,97852.41
2023-03-16T15:49:47.743Z,97857.66
2023-03-16T15:51:22.031Z,97858.06
2023-03-16T15:52:59.503Z,97866.13
2023-03-16T15:54:33.760Z,97861.25
2023-03-16T15:56:17.942Z,97867.63
2023-03-16T15:57:56.615Z,97864.78
2023-03-16T15:59:34.572Z,97857.34
2023-03-16T16:01:07.669Z,97864.03
2023-03-16T16:02:39.325Z,97857.19
2023-03-16T16:04:17.681Z,97855.09
2023-03-16T16:05:49.912Z,97854.31
2023-03-16T16:07:22.300Z,97851.50
2023-03-16T16:08:54.505Z,97854.44
2023-03-16T16:10:28.758Z,97849.19
2023-03-16T16:12:01.345Z,97855.41
2023-03-16T16:13:44.078Z,97852.13
2023-03-16T16:15:38.368Z,97846.25
2023-03-16T16:17:11.789Z,97837.63
2023-03-16T16:18:44.885Z,97848.06
2023-03-16T16:20:27.433Z,97846.16
2023-03-16T16:21:59.428Z,97856.06
2023-03-16T16:23:32.569Z,97853.63
2023-03-16T16:25:05.319Z,97865.16
2023-03-16T16:26:52.036Z,97859.00
2023-03-16T16:28:30.042Z,97854.09
2023-03-16T16:30:01.789Z,97849.31
2023-03-16T16:31:33.651Z,97843.25
2023-03-16T16:33:40.122Z,97860.38
2023-03-16T16:43:19.051Z,97853.31
2023-03-16T16:44:51.718Z,97855.03
2023-03-16T16:46:29.315Z,97853.47
2023-03-16T16:48:01.677Z,97869.16
2023-03-16T16:49:35.224Z,97860.34
2023-03-16T16:51:15.255Z,97857.63
2023-03-16T16:52:47.427Z,97853.09
2023-03-16T16:54:24.641Z,97860.09
2023-03-16T16:56:04.109Z,97854.81
2023-03-16T16:57:36.442Z,97841.47
2023-03-16T16:59:18.394Z,97859.28
2023-03-16T17:00:54.985Z,97862.63
2023-03-16T17:02:32.400Z,97860.25
2023-03-16T17:04:06.732Z,97861.81
2023-03-16T17:05:38.773Z,97859.25
2023-03-16T17:07:11.812Z,97862.94
2023-03-16T17:08:48.109Z,97863.03
2023-03-16T17:10:26.073Z,97858.03
2023-03-16T17:12:00.188Z,97861.69
2023-03-16T17:13:39.139Z,97858.88
2023-03-16T17:15:19.216Z,97857.41
2023-03-16T17:16:51.851Z,97860.41
2023-03-16T17:18:24.517Z,97861.44
2023-03-16T17:19:56.221Z,97862.13
2023-03-16T17:21:31.009Z,97857.19
2023-03-16T17:23:03.396Z,97861.19
2023-03-16T17:24:35.709Z,97855.28
2023-03-16T17:26:18.112Z,97857.97
2023-03-16T17:27:52.813Z,97858.34
2023-03-16T17:29:30.004Z,97861.94
2023-03-16T17:31:02.171Z,97863.63
2023-03-16T17:32:34.166Z,97859.19
2023-03-16T17:34:18.767Z,97862.22
2023-03-16T17:35:50.934Z,97864.03
2023-03-16T17:37:23.219Z,97860.25
2023-03-16T17:38:56.119Z,97859.31
2023-03-16T17:40:27.948Z,97863.09
2023-03-16T17:42:06.056Z,97858.97
2023-03-16T17:43:37.868Z,97862.28
2023-03-16T17:45:18.270Z,97860.84
2023-03-16T17:46:50.348Z,97865.41
2023-03-16T17:48:24.173Z,97855.59
2023-03-16T17:49:56.969Z,97860.84
2023-03-16T17:51:28.897Z,97863.63
2023-03-16T17:53:00.906Z,97862.81
2023-03-16T17:54:32.735Z,97866.09
2023-03-16T17:56:15.934Z,97867.72
2023-03-16T17:57:49.663Z,97865.94
2023-03-16T17:59:23.121Z,97860.84
2023-03-16T18:00:55.314Z,97871.31
2023-03-16T18:02:38.330Z,97872.00
2023-03-16T18:04:30.702Z,97870.69
2023-03-16T18:06:02.361Z,97874.75
2023-03-16T18:07:34.989Z,97875.59
2023-03-16T18:09:08.624Z,97870.69
2023-03-16T18:10:41.292Z,97873.59
2023-03-16T18:12:12.941Z,97867.75
2023-03-16T18:13:45.258Z,97868.88
2023-03-16T18:15:19.052Z,97862.50
2023-03-16T18:16:51.245Z,97862.63
2023-03-16T18:18:26.416Z,97864.94
2023-03-16T18:19:59.190Z,97872.28
2023-03-16T18:21:31.702Z,97872.28
2023-03-16T18:23:26.783Z,97867.38
2023-03-16T18:24:59.751Z,97871.59
2023-03-16T18:26:31.651Z,97867.69
2023-03-16T18:28:03.477Z,97870.63
2023-03-16T18:29:35.153Z,97874.00
2023-03-16T18:31:16.811Z,97867.44
2023-03-16T18:32:48.636Z,97868.44
2023-03-16T18:34:26.103Z,97860.88
2023-03-16T18:36:01.484Z,97872.16
2023-03-16T18:37:33.288Z,97871.19
2023-03-16T18:39:07.599Z,97877.34
2023-03-16T18:40:39.386Z,97876.13
2023-03-16T18:42:25.849Z,97873.72
2023-03-16T18:44:01.291Z,97873.22
2023-03-16T18:45:33.162Z,97871.19
2023-03-16T18:47:05.145Z,97875.09
2023-03-16T18:48:36.952Z,97868.44
2023-03-16T18:50:18.779Z,97866.88
2023-03-16T18:51:52.463Z,97871.69
2023-03-16T18:53:25.062Z,97867.94
2023-03-16T18:54:58.259Z,97872.66
2023-03-16T18:56:30.042Z,97866.56
2023-03-16T18:58:01.758Z,97865.34
2023-03-16T18:59:33.585Z,97865.28
2023-03-16T19:01:06.436Z,97864.78
2023-03-16T19:02:39.469Z,97873.91
2023-03-16T19:04:26.820Z,97868.00
2023-03-16T19:06:01.152Z,97876.63